createdAt,value
2019-04-26T00:01:50.239Z,69.21
2019-04-26T00:04:23.697Z,69.35
2019-04-26T00:06:53.549Z,69.40
2019-04-26T00:09:27.507Z,69.40
2019-04-26T00:12:19.069Z,69.48
2019-04-26T00:15:12.074Z,69.32
2019-04-26T00:17:48.174Z,69.18
2019-04-26T00:20:19.031Z,69.34
2019-04-26T00:22:49.154Z,69.45
2019-04-26T00:25:18.720Z,69.50
2019-04-26T00:27:48.877Z,69.54
2019-04-26T00:30:19.151Z,69.55
2019-04-26T00:32:48.985Z,69.81
2019-04-26T00:35:18.428Z,69.97
2019-04-26T00:37:59.780Z,69.96
2019-04-26T00:40:29.555Z,70.01
2019-04-26T00:43:00.775Z,69.91
2019-04-26T00:45:33.424Z,69.73
2019-04-26T00:48:04.949Z,69.58
2019-04-26T00:50:36.029Z,69.36
2019-04-26T00:53:06.567Z,69.42
2019-04-26T00:55:37.476Z,69.75
2019-04-26T00:58:09.909Z,70.09
2019-04-26T01:00:39.383Z,70.32
2019-04-26T01:03:08.958Z,70.54
2019-04-26T01:05:42.454Z,70.94
2019-04-26T01:08:12.334Z,71.22
2019-04-26T01:10:42.445Z,70.91
2019-04-26T01:13:12.004Z,70.81
2019-04-26T01:15:45.351Z,70.97
2019-04-26T01:18:16.906Z,71.56
2019-04-26T01:20:50.874Z,71.73
2019-04-26T01:23:23.605Z,71.67
2019-04-26T01:26:13.768Z,71.50
2019-04-26T01:28:53.871Z,71.92
2019-04-26T01:31:24.414Z,72.04
2019-04-26T01:33:54.394Z,71.75
2019-04-26T01:36:26.493Z,71.51
2019-04-26T01:38:59.470Z,71.53
2019-04-26T01:41:38.417Z,71.27
2019-04-26T01:44:14.498Z,71.13
2019-04-26T01:46:47.456Z,70.97
2019-04-26T01:49:20.871Z,70.85
2019-04-26T01:52:04.847Z,70.69
2019-04-26T01:54:40.252Z,70.86
2019-04-26T01:57:10.110Z,71.60
2019-04-26T01:59:43.073Z,71.71
2019-04-26T02:02:27.789Z,71.83
2019-04-26T02:05:01.206Z,72.09
2019-04-26T02:07:41.746Z,72.33
2019-04-26T02:10:13.262Z,72.39
2019-04-26T02:12:47.582Z,72.49
2019-04-26T02:15:20.445Z,72.61
2019-04-26T02:17:52.142Z,72.53
2019-04-26T02:21:19.637Z,72.68
2019-04-26T02:24:09.358Z,72.96
2019-04-26T02:26:42.151Z,73.42
2019-04-26T02:29:16.851Z,73.45
2019-04-26T02:31:52.857Z,73.53
2019-04-26T02:34:23.007Z,73.58
2019-04-26T02:36:58.455Z,73.99
2019-04-26T02:39:32.076Z,73.86
2019-04-26T02:42:05.589Z,73.79
2019-04-26T02:44:48.635Z,73.98
2019-04-26T02:47:50.746Z,73.76
2019-04-26T02:50:28.302Z,73.97
2019-04-26T02:53:23.489Z,73.81
2019-04-26T02:56:30.306Z,73.95
2019-04-26T02:59:41.779Z,73.97
2019-04-26T03:02:37.289Z,74.34
2019-04-26T03:05:09.970Z,74.50
2019-04-26T03:08:21.028Z,74.64
2019-04-26T03:11:11.114Z,74.69
2019-04-26T03:14:02.870Z,74.87
2019-04-26T03:16:54.387Z,75.16
2019-04-26T03:19:38.166Z,75.06
2019-04-26T03:22:58.341Z,75.30
2019-04-26T03:25:44.974Z,75.54
2019-04-26T03:29:14.065Z,75.59
2019-04-26T03:32:22.564Z,75.51
2019-04-26T03:35:18.221Z,75.51
2019-04-26T03:38:16.705Z,75.25
2019-04-26T03:41:05.845Z,75.16
2019-04-26T03:43:50.607Z,74.85
2019-04-26T03:46:43.077Z,74.46
2019-04-26T03:50:12.124Z,74.14
2019-04-26T03:53:08.203Z,73.99
2019-04-26T03:56:24.929Z,73.86
2019-04-26T03:59:06.749Z,73.63
2019-04-26T04:01:46.282Z,73.55
2019-04-26T04:04:37.082Z,73.36
2019-04-26T04:07:10.441Z,73.22
2019-04-26T04:09:51.158Z,73.07
2019-04-26T04:12:37.816Z,73.06
2019-04-26T04:15:17.393Z,73.06
2019-04-26T04:17:55.398Z,73.08
2019-04-26T04:21:03.762Z,72.98
2019-04-26T04:23:53.731Z,72.82
2019-04-26T04:26:39.095Z,72.82
2019-04-26T04:29:50.503Z,72.63
2019-04-26T04:32:28.101Z,72.67
2019-04-26T04:35:01.098Z,72.73
2019-04-26T04:37:33.936Z,72.63
2019-04-26T04:40:22.972Z,72.61
2019-04-26T04:43:29.573Z,72.55
2019-04-26T04:46:42.033Z,72.76
2019-04-26T04:49:31.670Z,72.87
2019-04-26T04:52:38.905Z,72.76
2019-04-26T04:55:15.240Z,72.65
2019-04-26T04:58:10.362Z,72.44
2019-04-26T05:01:32.019Z,72.47
2019-04-26T05:04:10.968Z,72.26
2019-04-26T05:07:25.653Z,72.20
2019-04-26T05:10:10.874Z,72.04
2019-04-26T05:13:10.456Z,71.88
2019-04-26T05:16:16.905Z,71.72
2019-04-26T05:19:36.151Z,71.77
2019-04-26T05:22:40.822Z,71.61
2019-04-26T05:25:56.902Z,71.53
2019-04-26T05:28:38.147Z,71.19
2019-04-26T05:31:36.996Z,71.01
2019-04-26T05:34:47.944Z,70.85
2019-04-26T05:37:39.703Z,70.70
2019-04-26T05:40:45.525Z,70.60
2019-04-26T05:43:45.128Z,70.34
2019-04-26T05:47:14.274Z,70.22
2019-04-26T05:50:19.967Z,70.25
2019-04-26T05:53:34.165Z,70.06
2019-04-26T05:56:43.645Z,69.83
2019-04-26T05:59:25.118Z,69.83
2019-04-26T06:02:34.291Z,69.47
2019-04-26T06:05:40.865Z,69.24
2019-04-26T06:08:51.200Z,68.88
2019-04-26T06:11:33.551Z,68.78
2019-04-26T06:14:56.807Z,68.35
2019-04-26T06:18:15.223Z,68.02
2019-04-26T06:20:57.714Z,67.93
2019-04-26T06:23:58.061Z,67.77
2019-04-26T06:27:14.364Z,67.65
2019-04-26T06:30:07.928Z,67.27
2019-04-26T06:33:00.383Z,67.15
2019-04-26T06:35:27.486Z,67.08
2019-04-26T06:38:55.967Z,66.78
2019-04-26T06:42:01.418Z,66.60
2019-04-26T06:44:40.054Z,66.17
2019-04-26T06:47:24.581Z,65.73
2019-04-26T06:50:15.042Z,65.44
2019-04-26T06:52:52.923Z,65.15
2019-04-26T06:55:35.883Z,65.04
2019-04-26T06:58:37.478Z,64.96
2019-04-26T07:01:28.314Z,64.88
2019-04-26T07:04:59.145Z,65.00
2019-04-26T07:08:05.160Z,64.86
2019-04-26T07:11:02.731Z,64.63
2019-04-26T07:14:12.496Z,64.64
2019-04-26T07:16:53.104Z,64.52
2019-04-26T07:20:08.870Z,64.27
2019-04-26T07:23:44.507Z,64.32
2019-04-26T07:27:08.963Z,64.00
2019-04-26T07:30:01.900Z,63.65
2019-04-26T07:33:13.141Z,63.46
2019-04-26T07:35:59.358Z,63.34
2019-04-26T07:39:33.755Z,63.17
2019-04-26T07:42:55.776Z,62.92
2019-04-26T07:45:53.525Z,62.67
2019-04-26T07:49:04.189Z,62.59
2019-04-26T07:52:15.841Z,62.34
2019-04-26T07:55:32.400Z,61.92
2019-04-26T07:58:38.107Z,61.63
2019-04-26T08:01:50.476Z,61.44
2019-04-26T08:04:29.597Z,61.09
2019-04-26T08:07:11.924Z,60.34
2019-04-26T08:09:59.202Z,60.23
2019-04-26T08:12:21.158Z,59.04
2019-04-26T08:15:19.101Z,57.35
2019-04-26T08:18:06.657Z,55.23
2019-04-26T08:21:02.404Z,54.01
2019-04-26T08:23:42.028Z,53.10
2019-04-26T08:26:15.522Z,52.95
2019-04-26T08:28:48.162Z,54.06
2019-04-26T08:31:24.322Z,54.91
2019-04-26T08:34:02.096Z,54.89
2019-04-26T08:36:37.297Z,54.73
2019-04-26T08:39:15.929Z,54.71
2019-04-26T08:41:48.625Z,54.69
2019-04-26T08:44:30.170Z,54.26
2019-04-26T08:47:14.241Z,54.13
2019-04-26T08:50:00.134Z,53.69
2019-04-26T08:52:34.051Z,53.55
2019-04-26T08:55:07.649Z,53.58
2019-04-26T08:57:39.715Z,53.10
2019-04-26T09:00:27.193Z,52.88
2019-04-26T09:03:12.193Z,52.44
2019-04-26T09:05:59.504Z,52.72
2019-04-26T09:08:33.479Z,52.55
2019-04-26T09:11:05.860Z,51.72
2019-04-26T09:13:39.468Z,51.20
2019-04-26T09:16:18.599Z,50.58
2019-04-26T09:18:54.329Z,50.41
2019-04-26T09:21:42.354Z,50.01
2019-04-26T09:24:24.948Z,49.65
2019-04-26T09:27:01.769Z,50.61
2019-04-26T09:29:48.962Z,50.80
2019-04-26T09:32:28.013Z,50.55
2019-04-26T09:34:56.608Z,49.97
2019-04-26T09:37:26.215Z,49.98
2019-04-26T09:40:09.400Z,49.88
2019-04-26T09:42:43.911Z,50.05
2019-04-26T09:45:35.936Z,49.45
2019-04-26T09:48:11.478Z,49.64
2019-04-26T09:50:44.157Z,49.92
2019-04-26T09:53:13.718Z,50.04
2019-04-26T09:55:43.467Z,49.91
2019-04-26T09:58:14.269Z,49.52
2019-04-26T10:00:48.477Z,49.42
2019-04-26T10:03:15.954Z,49.40
2019-04-26T10:05:45.697Z,49.19
2019-04-26T10:08:15.396Z,48.83
2019-04-26T10:10:45.388Z,48.54
2019-04-26T10:13:33.168Z,48.15
2019-04-26T10:16:21.656Z,47.93
2019-04-26T10:18:59.450Z,47.57
2019-04-26T10:21:29.435Z,47.90
2019-04-26T10:23:59.084Z,47.62
2019-04-26T10:26:29.918Z,47.64
2019-04-26T10:28:59.899Z,46.79
2019-04-26T10:31:29.668Z,46.60
2019-04-26T10:33:59.512Z,46.85
2019-04-26T10:36:30.131Z,46.44
2019-04-26T10:39:01.916Z,46.94
2019-04-26T10:41:31.456Z,46.48
2019-04-26T10:44:04.710Z,46.29
2019-04-26T10:46:34.324Z,45.98
2019-04-26T10:49:25.997Z,45.97
2019-04-26T10:51:55.593Z,46.03
2019-04-26T10:54:25.225Z,45.54
2019-04-26T10:57:01.260Z,45.36
2019-04-26T10:59:39.895Z,44.85
2019-04-26T11:02:11.649Z,44.93
2019-04-26T11:04:42.845Z,44.85
2019-04-26T11:07:14.874Z,44.93
2019-04-26T11:09:44.778Z,45.04
2019-04-26T11:12:17.155Z,44.96
2019-04-26T11:14:48.191Z,44.44
2019-04-26T11:17:18.050Z,43.75
2019-04-26T11:19:47.777Z,43.10
2019-04-26T11:22:28.586Z,43.38
2019-04-26T11:24:50.112Z,43.39
2019-04-26T11:27:23.350Z,43.37
2019-04-26T11:29:53.783Z,43.24
2019-04-26T11:32:23.670Z,42.43
2019-04-26T11:34:54.592Z,42.42
2019-04-26T11:37:24.920Z,42.47
2019-04-26T11:39:55.644Z,42.08
2019-04-26T11:42:27.551Z,42.05
2019-04-26T11:45:05.950Z,41.76
2019-04-26T11:47:28.480Z,41.64
2019-04-26T11:49:58.385Z,41.19
2019-04-26T11:52:28.062Z,40.90
2019-04-26T11:54:57.745Z,40.26
2019-04-26T11:57:27.436Z,40.03
2019-04-26T11:59:57.222Z,39.57
2019-04-26T12:02:27.117Z,39.42
2019-04-26T12:05:14.229Z,38.57
2019-04-26T12:07:53.487Z,38.82
2019-04-26T12:10:23.174Z,39.10
2019-04-26T12:13:05.145Z,38.49
2019-04-26T12:15:30.296Z,38.41
2019-04-26T12:17:58.782Z,38.25
2019-04-26T12:20:28.483Z,38.32
2019-04-26T12:22:58.222Z,37.92
2019-04-26T12:25:30.929Z,37.37
2019-04-26T12:28:01.841Z,37.06
2019-04-26T12:30:31.109Z,36.97
2019-04-26T12:33:01.186Z,36.89
2019-04-26T12:35:30.773Z,36.73
2019-04-26T12:38:03.389Z,36.53
2019-04-26T12:40:35.573Z,36.28
2019-04-26T12:43:08.061Z,35.68
2019-04-26T12:45:54.356Z,35.00
2019-04-26T12:48:24.520Z,34.88
2019-04-26T12:50:54.598Z,34.69
2019-04-26T12:53:26.844Z,34.16
2019-04-26T12:55:58.350Z,33.58
2019-04-26T12:58:32.156Z,33.50
2019-04-26T13:01:02.172Z,33.52
2019-04-26T13:03:31.894Z,33.53
2019-04-26T13:06:01.849Z,33.32
2019-04-26T13:08:31.450Z,33.53
2019-04-26T13:11:17.011Z,33.47
2019-04-26T13:14:12.528Z,33.38
2019-04-26T13:16:51.020Z,32.40
2019-04-26T13:19:21.047Z,31.78
2019-04-26T13:21:50.742Z,31.67
2019-04-26T13:24:20.672Z,31.52
2019-04-26T13:26:50.502Z,31.03
2019-04-26T13:29:21.309Z,30.94
2019-04-26T13:31:50.835Z,31.04
2019-04-26T13:34:20.739Z,31.06
2019-04-26T13:36:50.502Z,31.30
2019-04-26T13:39:22.545Z,31.63
2019-04-26T13:42:02.108Z,31.70
2019-04-26T13:44:41.157Z,31.67
2019-04-26T13:47:28.142Z,31.69
2019-04-26T13:50:16.696Z,31.75
2019-04-26T13:52:46.702Z,31.60
2019-04-26T13:55:16.346Z,31.42
2019-04-26T13:57:46.219Z,31.42
2019-04-26T14:00:22.638Z,31.68
2019-04-26T14:02:52.361Z,31.78
2019-04-26T14:05:22.750Z,31.64
2019-04-26T14:07:52.519Z,31.91
2019-04-26T14:10:23.423Z,31.87
2019-04-26T14:12:53.004Z,31.74
2019-04-26T14:15:22.597Z,32.15
2019-04-26T14:17:52.133Z,32.32
2019-04-26T14:20:23.380Z,32.18
2019-04-26T14:23:05.830Z,32.01
2019-04-26T14:25:50.652Z,32.04
2019-04-26T14:28:20.479Z,32.05
2019-04-26T14:30:52.406Z,32.03
2019-04-26T14:33:22.125Z,32.26
2019-04-26T14:35:52.180Z,32.55
2019-04-26T14:38:28.076Z,32.51
2019-04-26T14:41:03.727Z,32.49
2019-04-26T14:43:24.810Z,32.31
2019-04-26T14:45:56.171Z,32.29
2019-04-26T14:48:35.779Z,32.41
2019-04-26T14:51:07.470Z,33.44
2019-04-26T14:53:32.176Z,34.32
2019-04-26T14:56:00.345Z,34.91
2019-04-26T14:58:30.610Z,35.17
2019-04-26T15:01:03.262Z,35.42
2019-04-26T15:03:46.323Z,34.76
2019-04-26T15:06:27.956Z,34.08
2019-04-26T15:08:57.682Z,33.60
2019-04-26T15:11:32.186Z,33.72
2019-04-26T15:14:03.215Z,33.63
2019-04-26T15:16:32.952Z,34.16
2019-04-26T15:19:02.730Z,35.08
2019-04-26T15:21:34.397Z,35.90
2019-04-26T15:24:05.050Z,36.67
2019-04-26T15:26:36.518Z,36.69
2019-04-26T15:29:05.952Z,36.77
2019-04-26T15:31:35.899Z,36.75
2019-04-26T15:34:05.740Z,36.85
2019-04-26T15:36:36.628Z,36.73
2019-04-26T15:39:19.860Z,36.72
2019-04-26T15:42:03.888Z,36.74
2019-04-26T15:45:04.465Z,36.72
2019-04-26T15:47:52.427Z,36.58
2019-04-26T15:50:27.094Z,36.71
2019-04-26T15:52:56.853Z,36.80
2019-04-26T15:55:26.722Z,36.57
2019-04-26T15:57:56.339Z,36.65
2019-04-26T16:00:28.377Z,36.59
2019-04-26T16:03:03.047Z,37.00
2019-04-26T16:05:31.283Z,37.05
2019-04-26T16:08:04.465Z,37.50
2019-04-26T16:10:34.743Z,37.73
2019-04-26T16:13:18.223Z,37.71
2019-04-26T16:15:37.536Z,37.78
2019-04-26T16:18:10.543Z,38.13
2019-04-26T16:20:42.875Z,38.40
2019-04-26T16:23:13.409Z,38.62
2019-04-26T16:25:44.743Z,38.85
2019-04-26T16:28:54.107Z,39.14
2019-04-26T16:31:37.132Z,39.44
2019-04-26T16:34:10.816Z,39.68
2019-04-26T16:36:45.026Z,39.89
2019-04-26T16:39:13.266Z,40.21
2019-04-26T16:41:45.495Z,40.50
2019-04-26T16:44:19.174Z,40.80
2019-04-26T16:46:53.929Z,40.90
2019-04-26T16:49:19.798Z,41.13
2019-04-26T16:51:54.486Z,41.36
2019-04-26T16:54:22.835Z,41.63
2019-04-26T16:56:52.884Z,41.87
2019-04-26T16:59:26.590Z,42.15
2019-04-26T17:01:53.988Z,42.32
2019-04-26T17:04:29.077Z,42.45
2019-04-26T17:06:55.129Z,42.58
2019-04-26T17:09:29.640Z,42.85
2019-04-26T17:11:56.538Z,43.19
2019-04-26T17:14:26.370Z,43.35
2019-04-26T17:16:55.979Z,43.65
2019-04-26T17:19:25.637Z,43.77
2019-04-26T17:22:43.682Z,43.97
2019-04-26T17:25:24.344Z,44.14
2019-04-26T17:27:53.472Z,44.42
2019-04-26T17:30:25.118Z,44.63
2019-04-26T17:32:55.805Z,44.69
2019-04-26T17:35:25.718Z,44.80
2019-04-26T17:37:57.375Z,44.96
2019-04-26T17:40:30.268Z,45.12
2019-04-26T17:42:58.415Z,45.53
2019-04-26T17:45:28.176Z,45.66
2019-04-26T17:47:58.174Z,45.84
2019-04-26T17:50:27.749Z,45.94
2019-04-26T17:52:57.497Z,46.13
2019-04-26T17:55:27.215Z,46.40
2019-04-26T17:58:11.479Z,46.61
2019-04-26T18:00:30.085Z,46.75
2019-04-26T18:03:01.488Z,46.88
2019-04-26T18:05:42.009Z,47.05
2019-04-26T18:08:30.415Z,47.22
2019-04-26T18:10:41.393Z,47.36
2019-04-26T18:13:11.261Z,47.54
2019-04-26T18:15:39.974Z,47.61
2019-04-26T18:18:42.937Z,47.71
2019-04-26T18:21:49.705Z,47.80
2019-04-26T18:24:17.996Z,47.93
2019-04-26T18:26:52.243Z,48.07
2019-04-26T18:29:25.206Z,48.13
2019-04-26T18:31:53.585Z,48.25
2019-04-26T18:34:23.324Z,48.43
2019-04-26T18:36:52.867Z,48.53
2019-04-26T18:39:26.311Z,48.51
2019-04-26T18:41:54.149Z,48.72
2019-04-26T18:44:35.812Z,48.77
2019-04-26T18:47:14.740Z,48.89
2019-04-26T18:49:44.465Z,48.88
2019-04-26T18:52:14.192Z,48.81
2019-04-26T18:55:16.284Z,49.24
2019-04-26T18:57:53.962Z,49.21
2019-04-26T19:00:28.814Z,49.05
2019-04-26T19:02:59.867Z,49.04
2019-04-26T19:05:30.051Z,49.02
2019-04-26T19:07:59.645Z,49.09
2019-04-26T19:10:31.604Z,49.21
2019-04-26T19:13:07.432Z,49.28
2019-04-26T19:15:55.984Z,49.40
2019-04-26T19:18:54.120Z,49.58
2019-04-26T19:21:27.903Z,49.81
2019-04-26T19:24:05.878Z,49.88
2019-04-26T19:26:34.867Z,50.01
2019-04-26T19:29:09.910Z,49.92
2019-04-26T19:31:34.255Z,50.03
2019-04-26T19:34:03.832Z,50.17
2019-04-26T19:36:33.692Z,50.21
2019-04-26T19:39:03.630Z,50.31
2019-04-26T19:41:34.793Z,50.52
2019-04-26T19:44:04.635Z,50.62
2019-04-26T19:46:44.344Z,50.61
2019-04-26T19:49:36.786Z,50.40
2019-04-26T19:52:19.251Z,50.34
2019-04-26T19:55:16.778Z,50.05
2019-04-26T19:58:05.246Z,49.70
2019-04-26T20:00:38.534Z,49.48
2019-04-26T20:03:08.477Z,49.26
2019-04-26T20:05:40.577Z,49.33
2019-04-26T20:08:09.350Z,49.36
2019-04-26T20:10:40.690Z,49.34
2019-04-26T20:13:15.042Z,49.25
2019-04-26T20:15:42.502Z,49.34
2019-04-26T20:18:12.381Z,49.58
2019-04-26T20:20:41.933Z,49.85
2019-04-26T20:23:12.361Z,49.90
2019-04-26T20:25:42.110Z,50.04
2019-04-26T20:28:12.202Z,50.35
2019-04-26T20:31:08.924Z,50.79
2019-04-26T20:33:38.773Z,51.01
2019-04-26T20:36:08.454Z,51.09
2019-04-26T20:38:43.791Z,51.31
2019-04-26T20:41:13.162Z,51.63
2019-04-26T20:43:52.327Z,51.74
2019-04-26T20:46:16.085Z,52.16
2019-04-26T20:48:45.693Z,52.69
2019-04-26T20:51:17.997Z,52.54
2019-04-26T20:53:46.536Z,52.64
2019-04-26T20:56:18.616Z,52.71
2019-04-26T20:58:47.690Z,53.09
2019-04-26T21:01:17.496Z,53.36
2019-04-26T21:03:47.130Z,53.72
2019-04-26T21:06:16.673Z,53.71
2019-04-26T21:08:46.233Z,53.68
2019-04-26T21:11:15.866Z,53.81
2019-04-26T21:13:45.397Z,53.98
2019-04-26T21:16:15.724Z,53.91
2019-04-26T21:18:45.433Z,53.86
2019-04-26T21:21:16.231Z,54.00
2019-04-26T21:23:48.022Z,54.01
2019-04-26T21:26:36.559Z,54.22
2019-04-26T21:29:20.295Z,54.34
2019-04-26T21:32:12.440Z,54.26
2019-04-26T21:34:46.448Z,54.34
2019-04-26T21:37:28.086Z,54.43
2019-04-26T21:40:16.896Z,54.44
2019-04-26T21:42:45.320Z,54.47
2019-04-26T21:45:15.350Z,54.41
2019-04-26T21:47:45.003Z,54.38
2019-04-26T21:50:16.215Z,54.31
2019-04-26T21:52:45.849Z,54.41
2019-04-26T21:55:16.685Z,54.56
2019-04-26T21:57:46.464Z,54.74
2019-04-26T22:00:36.524Z,55.00
2019-04-26T22:03:07.872Z,55.17
2019-04-26T22:05:37.736Z,55.06
2019-04-26T22:08:07.467Z,55.23
2019-04-26T22:10:44.547Z,55.46
2019-04-26T22:13:19.228Z,55.41
2019-04-26T22:16:30.653Z,55.60
2019-04-26T22:19:08.724Z,55.92
2019-04-26T22:22:05.777Z,56.18
2019-04-26T22:24:34.421Z,55.98
2019-04-26T22:27:04.128Z,56.28
2019-04-26T22:29:33.680Z,56.82
2019-04-26T22:32:03.815Z,57.12
2019-04-26T22:34:37.305Z,57.23
2019-04-26T22:37:11.099Z,57.36
2019-04-26T22:39:39.735Z,57.44
2019-04-26T22:42:08.890Z,57.28
2019-04-26T22:44:57.347Z,57.65
2019-04-26T22:47:40.877Z,57.80
2019-04-26T22:50:07.101Z,57.76
2019-04-26T22:52:36.753Z,57.80
2019-04-26T22:55:07.145Z,57.76
2019-04-26T22:57:37.037Z,57.72
2019-04-26T23:00:08.534Z,57.99
2019-04-26T23:02:38.208Z,57.97
2019-04-26T23:05:07.939Z,57.99
2019-04-26T23:07:37.562Z,57.86
2019-04-26T23:10:08.457Z,58.33
2019-04-26T23:13:04.488Z,58.25
2019-04-26T23:15:48.407Z,58.19
2019-04-26T23:18:38.750Z,58.50
2019-04-26T23:21:14.955Z,58.63
2019-04-26T23:23:44.314Z,58.71
2019-04-26T23:26:14.417Z,58.92
2019-04-26T23:28:44.055Z,59.12
2019-04-26T23:31:13.620Z,59.30
2019-04-26T23:33:43.213Z,59.54
2019-04-26T23:36:13.605Z,59.49
2019-04-26T23:38:43.915Z,59.34
2019-04-26T23:41:14.192Z,59.20
2019-04-26T23:43:43.869Z,59.50
2019-04-26T23:46:14.689Z,59.83
2019-04-26T23:48:48.834Z,59.84
2019-04-26T23:51:15.968Z,59.92
2019-04-26T23:53:45.580Z,59.98
2019-04-26T23:56:21.694Z,60.26
2019-04-26T23:58:46.401Z,60.27
